Time;durP1;ratioP1;P1;durP2;ratioP2;P2;SDS_P1;SDS_P2;PMS_P1;PMS_P2;Temp;Humidity;BMP_temperature;BMP_pressure;BME280_temperature;BME280_humidity;BME280_pressure;Samples;Min_cycle;Max_cycle;Signal;HPM_P1;HPM_P2
2022/05/17 00:01:03;;;;;;;7.30;2.28;;;;;;;13.37;84.43;101881.03;5035733;28;20558;-89
2022/05/17 00:03:29;;;;;;;7.23;2.20;;;;;;;13.39;84.54;101878.13;5034771;28;20026;-90
2022/05/17 00:05:54;;;;;;;11.57;2.35;;;;;;;13.36;84.07;101882.09;5036661;28;20518;-89
2022/05/17 00:08:19;;;;;;;6.20;2.30;;;;;;;13.36;84.84;101878.59;5035662;28;20025;-89
2022/05/17 00:10:46;;;;;;;6.67;2.00;;;;;;;13.25;85.33;101878.47;5034069;28;20048;-89
2022/05/17 00:13:13;;;;;;;5.25;2.15;;;;;;;13.27;85.19;101880.91;5034812;28;20052;-89
2022/05/17 00:15:42;;;;;;;7.38;2.38;;;;;;;13.26;85.28;101885.47;5034470;28;20033;-89
2022/05/17 00:18:10;;;;;;;7.63;2.28;;;;;;;13.20;84.78;101877.59;5034699;28;20034;-90
2022/05/17 00:20:35;;;;;;;6.27;2.33;;;;;;;13.24;85.84;101878.72;5034588;28;20041;-89
2022/05/17 00:23:02;;;;;;;7.13;2.53;;;;;;;13.22;85.57;101870.09;5037185;28;20291;-89
2022/05/17 00:25:27;;;;;;;9.45;2.80;;;;;;;13.16;85.71;101870.00;5036082;28;20357;-90
2022/05/17 00:27:52;;;;;;;6.67;2.57;;;;;;;13.14;85.81;101869.47;5036243;28;20030;-88
2022/05/17 00:30:18;;;;;;;11.90;2.57;;;;;;;13.12;85.45;101866.22;5035310;28;20032;-89
2022/05/17 00:32:43;;;;;;;11.10;2.87;;;;;;;13.11;85.75;101855.69;5033562;28;20059;-90
2022/05/17 00:35:09;;;;;;;8.13;2.50;;;;;;;13.09;85.67;101869.41;5033949;28;20021;-90
2022/05/17 00:37:35;;;;;;;7.18;2.60;;;;;;;13.03;86.19;101865.84;5035994;28;20032;-90
2022/05/17 00:40:00;;;;;;;8.80;2.67;;;;;;;13.02;86.21;101856.13;5034962;28;20105;-89
2022/05/17 00:42:26;;;;;;;6.53;3.00;;;;;;;12.99;86.01;101853.94;5033064;28;20473;-89
2022/05/17 00:44:51;;;;;;;6.77;2.93;;;;;;;12.95;86.46;101858.19;5034879;28;20045;-89
2022/05/17 00:47:22;;;;;;;8.43;3.15;;;;;;;12.95;86.48;101858.19;5034562;28;20465;-89
2022/05/17 00:49:52;;;;;;;5.10;2.90;;;;;;;12.98;86.36;101860.38;5032751;28;20033;-90
2022/05/17 00:52:29;;;;;;;7.63;3.20;;;;;;;12.96;86.45;101859.00;5027079;28;20021;-89
2022/05/17 00:55:01;;;;;;;7.32;3.70;;;;;;;13.07;86.46;101860.75;5030392;28;20034;-89
2022/05/17 00:57:33;;;;;;;7.32;3.83;;;;;;;13.13;86.69;101859.78;5032592;28;20480;-89
2022/05/17 01:00:03;;;;;;;11.77;3.97;;;;;;;13.17;86.63;101860.06;5031813;28;20025;-89
2022/05/17 01:02:29;;;;;;;11.75;4.30;;;;;;;13.17;87.22;101850.13;5029876;28;20068;-89
2022/05/17 01:04:55;;;;;;;8.55;4.32;;;;;;;13.21;87.67;101855.00;5030872;28;20073;-89
2022/05/17 01:07:23;;;;;;;9.00;4.43;;;;;;;13.23;86.85;101853.72;5030237;28;20696;-89
2022/05/17 01:09:49;;;;;;;11.68;4.57;;;;;;;13.23;86.57;101853.72;5031996;28;20072;-89
2022/05/17 01:12:14;;;;;;;9.10;4.27;;;;;;;13.17;87.66;101852.81;5029001;28;20045;-89
2022/05/17 01:14:58;;;;;;;13.80;4.93;;;;;;;13.13;88.15;101854.38;5029981;28;20029;-89
2022/05/17 01:17:26;;;;;;;9.10;4.13;;;;;;;13.02;87.51;101847.22;5030050;28;20435;-89
2022/05/17 01:19:52;;;;;;;6.60;4.20;;;;;;;12.99;87.43;101850.41;5032142;28;20022;-89
2022/05/17 01:22:18;;;;;;;12.23;4.30;;;;;;;12.95;87.71;101842.03;5029821;28;20539;-89
2022/05/17 01:24:43;;;;;;;12.30;4.47;;;;;;;12.96;87.68;101848.25;5029780;28;20033;-89
2022/05/17 01:27:19;;;;;;;9.97;4.33;;;;;;;13.01;87.85;101849.13;5030865;28;20040;-89
2022/05/17 01:29:46;;;;;;;10.48;4.30;;;;;;;13.09;87.93;101850.56;5031981;28;20029;-88
2022/05/17 01:32:14;;;;;;;9.15;4.07;;;;;;;13.17;87.58;101852.00;5029664;28;20068;-90
2022/05/17 01:34:39;;;;;;;11.07;4.80;;;;;;;13.20;87.37;101837.22;5029971;28;20043;-89
2022/05/17 01:37:05;;;;;;;15.47;4.57;;;;;;;13.20;88.12;101842.59;5029451;28;20029;-89
2022/05/17 01:39:32;;;;;;;7.65;3.92;;;;;;;13.21;87.75;101846.94;5029285;28;20098;-89
2022/05/17 01:41:57;;;;;;;7.22;4.45;;;;;;;13.29;88.29;101851.88;5030918;28;20041;-89
2022/05/17 01:44:23;;;;;;;6.93;3.50;;;;;;;13.36;87.96;101849.78;5033159;28;20037;-91
2022/05/17 01:46:49;;;;;;;6.33;3.60;;;;;;;13.40;87.66;101842.88;5037872;28;20124;-89
2022/05/17 01:49:14;;;;;;;7.60;3.67;;;;;;;13.48;87.54;101844.31;5030029;28;20103;-89
2022/05/17 01:51:39;;;;;;;11.43;3.33;;;;;;;13.52;87.33;101840.06;5028947;28;20033;-89
2022/05/17 01:54:05;;;;;;;8.80;3.67;;;;;;;13.54;87.06;101839.78;5028729;28;20116;-89
2022/05/17 01:56:30;;;;;;;6.20;3.60;;;;;;;13.59;87.07;101846.06;5031405;28;20029;-89
2022/05/17 01:58:55;;;;;;;6.38;3.58;;;;;;;13.60;87.45;101850.34;5030740;28;20029;-88
2022/05/17 02:01:21;;;;;;;7.33;3.30;;;;;;;13.67;87.12;101852.06;5029625;28;20507;-89
2022/05/17 02:03:46;;;;;;;13.93;4.20;;;;;;;13.71;87.06;101850.47;5029298;28;20082;-89
2022/05/17 02:06:11;;;;;;;10.77;3.57;;;;;;;13.77;86.26;101857.56;5031903;28;20101;-88
2022/05/17 02:08:37;;;;;;;7.87;3.63;;;;;;;13.81;86.33;101858.66;5038450;28;20018;-88
2022/05/17 02:11:03;;;;;;;7.05;3.72;;;;;;;13.83;86.78;101856.53;5035259;28;20485;-89
2022/05/17 02:13:31;;;;;;;8.45;3.45;;;;;;;13.87;86.19;101854.94;5033143;28;20408;-89
2022/05/17 02:15:57;;;;;;;6.47;3.30;;;;;;;13.87;85.84;101857.66;5031722;28;20138;-89
2022/05/17 02:18:22;;;;;;;9.67;3.60;;;;;;;13.90;86.33;101853.63;5029534;28;20165;-89
2022/05/17 02:20:48;;;;;;;10.70;3.53;;;;;;;13.90;86.24;101857.13;5028808;28;20030;-89
2022/05/17 02:23:13;;;;;;;9.63;3.33;;;;;;;13.90;85.94;101856.31;5030221;28;20044;-89
2022/05/17 02:25:38;;;;;;;8.43;3.73;;;;;;;13.90;85.96;101846.38;5028843;28;20307;-90
2022/05/17 02:28:06;;;;;;;11.00;3.60;;;;;;;13.95;86.10;101861.75;5030107;28;20547;-89
2022/05/17 02:30:31;;;;;;;10.52;3.47;;;;;;;13.98;85.90;101863.94;5030274;28;20125;-89
2022/05/17 02:32:57;;;;;;;6.20;3.35;;;;;;;14.00;86.00;101859.13;5027759;28;20120;-89
2022/05/17 02:35:24;;;;;;;8.60;3.20;;;;;;;13.97;86.63;101854.22;5031010;28;20037;-89
2022/05/17 02:37:49;;;;;;;6.93;3.20;;;;;;;13.97;85.72;101853.44;5029672;28;20120;-89
2022/05/17 02:40:14;;;;;;;5.63;3.00;;;;;;;14.02;85.92;101859.69;5030505;28;20133;-89
2022/05/17 02:42:40;;;;;;;9.47;3.63;;;;;;;14.02;85.95;101859.69;5031282;28;20041;-90
2022/05/17 02:45:06;;;;;;;7.60;3.20;;;;;;;14.02;86.42;101862.38;5030745;28;20038;-88
2022/05/17 02:47:32;;;;;;;6.18;2.92;;;;;;;14.00;86.24;101861.81;5030250;28;20465;-89
2022/05/17 02:49:59;;;;;;;10.07;3.13;;;;;;;14.01;86.52;101860.75;5028034;28;20109;-88
2022/05/17 02:52:24;;;;;;;9.82;3.15;;;;;;;13.98;85.93;101869.34;5027935;28;20037;-88
2022/05/17 02:54:49;;;;;;;8.87;3.00;;;;;;;13.93;86.10;101871.97;5029536;28;20374;-89
2022/05/17 02:57:14;;;;;;;8.03;3.30;;;;;;;13.89;87.14;101873.53;5030444;28;20068;-88
2022/05/17 02:59:40;;;;;;;7.00;2.97;;;;;;;13.80;86.57;101873.19;5029250;28;20497;-89
2022/05/17 03:02:05;;;;;;;8.30;3.33;;;;;;;13.75;86.97;101873.94;5028027;28;20045;-88
2022/05/17 03:04:30;;;;;;;6.77;3.23;;;;;;;13.66;86.94;101864.72;5028741;28;20304;-88
2022/05/17 03:06:56;;;;;;;8.77;3.13;;;;;;;13.63;87.08;101876.00;5030079;28;20108;-88
2022/05/17 03:09:22;;;;;;;7.53;3.03;;;;;;;13.56;87.01;101876.19;5027380;28;20041;-89
2022/05/17 03:11:47;;;;;;;8.97;2.97;;;;;;;13.50;87.31;101873.69;5026797;28;20288;-88
2022/05/17 03:14:17;;;;;;;5.50;2.90;;;;;;;13.40;87.64;101863.59;5026892;28;20025;-89
2022/05/17 03:16:42;;;;;;;8.80;3.20;;;;;;;13.31;88.15;101872.09;5027758;28;20025;-90
2022/05/17 03:19:08;;;;;;;8.40;2.97;;;;;;;13.24;88.51;101873.34;5028821;28;20128;-90
2022/05/17 03:21:34;;;;;;;8.83;3.17;;;;;;;13.21;88.97;101873.84;5029735;28;20438;-91
2022/05/17 03:23:59;;;;;;;6.93;2.88;;;;;;;13.13;89.07;101875.09;5028237;28;20037;-91
2022/05/17 03:26:30;;;;;;;9.23;3.40;;;;;;;13.10;90.01;101872.88;5029870;28;20044;-90
2022/05/17 03:28:58;;;;;;;8.60;3.13;;;;;;;13.06;90.60;101877.97;5029872;28;20296;-91
2022/05/17 03:31:24;;;;;;;6.63;3.13;;;;;;;13.04;90.85;101872.00;5028282;28;20555;-91
2022/05/17 03:33:49;;;;;;;5.53;3.08;;;;;;;13.02;90.73;101869.59;5029275;28;20508;-91
2022/05/17 03:36:15;;;;;;;9.33;3.20;;;;;;;13.02;90.51;101874.13;5029504;28;20029;-91
2022/05/17 03:38:40;;;;;;;9.05;3.10;;;;;;;13.06;90.50;101874.44;5029247;28;20391;-91
2022/05/17 03:41:05;;;;;;;10.47;3.10;;;;;;;13.04;90.47;101877.41;5037042;28;20030;-91
2022/05/17 03:43:31;;;;;;;9.67;3.37;;;;;;;13.06;90.52;101880.66;5036887;28;20049;-91
2022/05/17 03:45:57;;;;;;;9.77;3.10;;;;;;;13.04;90.79;101872.00;5027695;28;20468;-91
2022/05/17 03:48:25;;;;;;;7.43;3.25;;;;;;;13.05;92.03;101875.53;5026764;28;20061;-91
2022/05/17 03:50:50;;;;;;;6.88;2.95;;;;;;;12.99;91.32;101870.06;5029257;28;20524;-91
2022/05/17 03:53:16;;;;;;;10.17;3.20;;;;;;;12.98;91.20;101879.22;5029633;28;20120;-90
2022/05/17 03:55:41;;;;;;;9.00;3.20;;;;;;;12.99;91.44;101875.47;5027480;28;20041;-91
2022/05/17 03:58:06;;;;;;;7.60;2.63;;;;;;;13.01;91.40;101876.03;5012735;28;20057;-91
2022/05/17 04:00:36;;;;;;;4.40;2.80;;;;;;;13.02;91.75;101874.13;5028956;28;20509;-90
2022/05/17 04:03:01;;;;;;;6.75;3.00;;;;;;;13.05;91.16;101880.91;5028577;28;20022;-90
2022/05/17 04:05:27;;;;;;;9.55;3.38;;;;;;;13.06;91.51;101879.81;5028927;28;20021;-90
2022/05/17 04:07:52;;;;;;;7.33;3.17;;;;;;;13.03;90.92;101881.97;5029376;28;20033;-90
2022/05/17 04:10:18;;;;;;;6.37;2.87;;;;;;;13.07;91.70;101876.91;5027449;28;20135;-91
2022/05/17 04:12:44;;;;;;;7.35;3.60;;;;;;;13.09;91.74;101885.53;5027334;28;20025;-92
2022/05/17 04:15:13;;;;;;;7.77;3.23;;;;;;;13.14;91.76;101885.63;5029187;28;20061;-92
2022/05/17 04:17:38;;;;;;;8.63;3.57;;;;;;;13.20;91.50;101891.06;5030469;28;20366;-92
2022/05/17 04:20:04;;;;;;;11.02;3.72;;;;;;;13.22;92.24;101880.84;5029014;28;20069;-91
2022/05/17 04:22:30;;;;;;;6.13;3.50;;;;;;;13.35;91.61;101895.81;5028574;28;20041;-89
2022/05/17 04:24:56;;;;;;;10.25;3.70;;;;;;;13.47;91.47;101899.22;5028615;28;20029;-90
2022/05/17 04:27:22;;;;;;;8.27;3.40;;;;;;;13.52;91.53;101893.06;5032749;28;20041;-89
2022/05/17 04:29:47;;;;;;;6.93;3.53;;;;;;;13.64;90.48;101901.84;5029340;28;20781;-90
2022/05/17 04:32:13;;;;;;;8.50;3.87;;;;;;;13.76;90.32;101905.22;5032538;28;20037;-92
2022/05/17 04:34:38;;;;;;;9.93;3.63;;;;;;;13.81;89.63;101895.56;5031711;28;20400;-93
2022/05/17 04:37:03;;;;;;;7.60;3.60;;;;;;;13.92;89.25;101898.13;5033735;28;20026;-93
2022/05/17 04:39:30;;;;;;;9.37;3.80;;;;;;;13.99;89.18;101897.91;5030944;28;20424;-92
2022/05/17 04:41:56;;;;;;;10.50;3.58;;;;;;;14.08;89.29;101907.16;5031989;28;20025;-89
2022/05/17 04:44:21;;;;;;;7.97;4.07;;;;;;;14.12;88.48;101901.25;5032617;28;20047;-90
2022/05/17 04:46:46;;;;;;;10.43;4.00;;;;;;;14.18;89.28;101900.25;5030587;28;20033;-93
2022/05/17 04:49:11;;;;;;;9.53;3.93;;;;;;;14.26;88.21;101901.66;5029901;28;20123;-95
2022/05/17 04:51:38;;;;;;;10.30;4.00;;;;;;;14.35;87.59;101905.50;5034286;28;20089;-94
2022/05/17 04:54:03;;;;;;;11.47;4.00;;;;;;;14.43;87.48;101906.91;5032897;28;20132;-95
2022/05/17 04:56:29;;;;;;;14.43;4.57;;;;;;;14.50;87.22;101904.81;5034316;28;20314;-94
2022/05/17 04:58:54;;;;;;;9.23;4.17;;;;;;;14.56;87.67;101901.09;5034837;28;20025;-93
2022/05/17 05:01:21;;;;;;;10.10;4.50;;;;;;;14.61;86.75;101897.59;5035965;28;20030;-92
2022/05/17 05:03:46;;;;;;;12.45;4.28;;;;;;;14.71;86.91;101911.19;5029306;28;20056;-93
2022/05/17 05:06:12;;;;;;;13.35;4.43;;;;;;;14.82;86.33;101909.38;5023542;28;20033;-93
2022/05/17 05:08:37;;;;;;;12.77;4.23;;;;;;;15.00;85.91;101916.25;5041043;28;20049;-95
2022/05/17 05:11:02;;;;;;;9.57;4.23;;;;;;;15.15;85.18;101929.03;5050091;28;20032;-95
2022/05/17 05:13:28;;;;;;;8.73;4.10;;;;;;;15.32;84.34;101922.63;5051149;28;20465;-93
2022/05/17 05:15:56;;;;;;;11.30;4.30;;;;;;;15.44;83.96;101928.59;5048780;28;20041;-93
2022/05/17 05:18:22;;;;;;;10.27;4.30;;;;;;;15.54;82.94;101925.94;5040658;28;20967;-94
2022/05/17 05:20:47;;;;;;;8.43;4.28;;;;;;;15.54;82.60;101923.22;5031339;28;20033;-94
2022/05/17 05:23:12;;;;;;;6.30;4.27;;;;;;;15.54;82.94;101931.34;5029022;28;20022;-95
2022/05/17 05:25:38;;;;;;;9.82;4.90;;;;;;;15.53;83.50;101934.31;5032959;28;20084;-94
2022/05/17 05:28:06;;;;;;;9.57;4.50;;;;;;;15.49;83.65;101934.03;5033139;28;20029;-94
2022/05/17 05:30:35;;;;;;;11.32;4.80;;;;;;;15.47;83.53;101935.34;5029293;28;20116;-93
2022/05/17 05:33:00;;;;;;;11.35;4.70;;;;;;;15.49;83.57;101928.63;5030114;28;20041;-95
2022/05/17 05:35:26;;;;;;;10.48;4.53;;;;;;;15.60;83.40;101929.50;5035401;28;20029;-95
2022/05/17 05:37:53;;;;;;;10.50;4.38;;;;;;;15.75;83.07;101945.75;5037142;28;20029;-95
2022/05/17 05:40:19;;;;;;;14.93;4.80;;;;;;;15.88;82.04;101947.16;5035730;28;20033;-94
2022/05/17 05:42:48;;;;;;;12.43;4.13;;;;;;;16.02;83.27;101952.84;5027263;28;20296;-95
2022/05/17 05:45:13;;;;;;;10.02;4.68;;;;;;;16.09;82.10;101957.19;5035657;28;20404;-95
2022/05/17 05:47:39;;;;;;;14.63;4.97;;;;;;;16.10;82.20;101958.84;5031041;28;20056;-94
2022/05/17 05:50:04;;;;;;;17.03;5.40;;;;;;;16.15;81.42;101962.34;5032477;28;20303;-94
2022/05/17 05:52:30;;;;;;;10.40;5.17;;;;;;;16.24;81.37;101964.53;5032602;28;20117;-93
2022/05/17 05:54:55;;;;;;;12.05;5.07;;;;;;;16.32;80.74;101955.88;5033031;28;20041;-95
2022/05/17 05:57:20;;;;;;;9.33;4.97;;;;;;;16.39;80.81;101961.84;5033398;28;20035;-93
2022/05/17 05:59:46;;;;;;;14.73;5.30;;;;;;;16.44;81.60;101953.72;5028760;28;20034;-91
2022/05/17 06:02:12;;;;;;;11.50;4.90;;;;;;;16.43;80.74;101962.91;5031794;28;20034;-91
2022/05/17 06:04:37;;;;;;;12.13;4.70;;;;;;;16.42;80.83;101964.00;5028255;28;20305;-92
2022/05/17 06:07:04;;;;;;;13.93;4.22;;;;;;;16.45;80.72;101960.75;5029134;28;20060;-90
2022/05/17 06:09:29;;;;;;;11.05;4.53;;;;;;;16.45;79.60;101952.63;5030459;28;20033;-91
2022/05/17 06:11:55;;;;;;;16.47;4.70;;;;;;;16.56;80.52;101966.19;5029569;28;20029;-91
2022/05/17 06:14:20;;;;;;;14.98;4.10;;;;;;;16.57;80.35;101959.69;5030918;28;20052;-91
2022/05/17 06:16:47;;;;;;;10.73;4.50;;;;;;;16.54;80.64;101957.50;5031049;28;20033;-91
2022/05/17 06:19:12;;;;;;;13.00;4.70;;;;;;;16.58;82.04;101958.59;5030489;28;20026;-90
2022/05/17 06:21:37;;;;;;;15.97;4.87;;;;;;;16.63;81.60;101964.00;5028356;28;20040;-91
2022/05/17 06:24:03;;;;;;;13.67;4.97;;;;;;;16.70;81.16;101969.94;5030688;28;20030;-90
2022/05/17 06:26:29;;;;;;;13.10;4.47;;;;;;;16.75;81.88;101969.13;5029205;28;20029;-89
2022/05/17 06:28:54;;;;;;;12.53;4.47;;;;;;;16.79;80.44;101971.03;5029948;28;20444;-90
2022/05/17 06:31:19;;;;;;;16.07;4.47;;;;;;;16.84;78.97;101966.69;5028527;28;20064;-89
2022/05/17 06:33:45;;;;;;;13.67;4.80;;;;;;;16.86;78.67;101967.22;5029279;28;20021;-89
2022/05/17 06:36:10;;;;;;;18.10;4.70;;;;;;;16.83;78.72;101965.06;5030582;28;20156;-90
2022/05/17 06:38:35;;;;;;;19.08;4.80;;;;;;;16.76;78.75;101966.16;5029784;28;20022;-90
2022/05/17 06:41:01;;;;;;;21.00;5.17;;;;;;;16.76;78.69;101974.28;5028722;28;20033;-89
2022/05/17 06:43:27;;;;;;;20.37;4.70;;;;;;;16.76;77.95;101979.72;5030153;28;20407;-90
2022/05/17 06:45:53;;;;;;;16.38;5.07;;;;;;;16.75;78.66;101986.19;5028451;28;20458;-89
2022/05/17 06:48:19;;;;;;;17.30;4.10;;;;;;;16.77;78.09;101994.84;5028151;28;20080;-91
2022/05/17 06:50:45;;;;;;;16.63;4.35;;;;;;;16.76;77.89;101998.66;5029182;28;20397;-89
2022/05/17 06:53:10;;;;;;;17.03;4.73;;;;;;;16.64;79.47;101976.44;5037252;22;20037;-89
2022/05/17 06:55:37;;;;;;;21.58;4.75;;;;;;;16.74;78.30;101989.16;5032639;28;20033;-89
2022/05/17 06:58:03;;;;;;;14.05;4.80;;;;;;;16.85;79.09;102000.78;5035337;28;20408;-91
2022/05/17 07:00:28;;;;;;;15.30;4.47;;;;;;;16.89;77.80;101999.19;5029310;28;20033;-90
2022/05/17 07:02:54;;;;;;;20.45;4.90;;;;;;;16.75;77.90;101971.84;5061034;22;20029;-90
2022/05/17 07:05:20;;;;;;;16.83;5.23;;;;;;;16.94;77.84;102005.38;5050526;28;20070;-90
2022/05/17 07:07:46;;;;;;;22.27;5.37;;;;;;;16.95;77.93;102004.34;5048717;28;20303;-89
2022/05/17 07:13:08;;;;;;;14.07;5.05;;;;;;;16.99;77.87;101985.66;5049836;28;20066;-89
2022/05/17 07:15:49;;;;;;;15.68;4.70;;;;;;;17.15;77.31;101999.97;5046259;28;20108;-89
2022/05/17 07:18:19;;;;;;;13.93;4.63;;;;;;;17.20;76.80;102012.69;5047188;28;20120;-89
2022/05/17 07:20:45;;;;;;;18.88;5.07;;;;;;;17.22;76.78;102008.66;5046701;28;20025;-90
2022/05/17 07:23:12;;;;;;;14.32;4.40;;;;;;;17.25;77.43;102012.69;5050212;28;20102;-90
2022/05/17 07:25:42;;;;;;;18.60;5.28;;;;;;;17.26;79.47;102011.59;5049749;28;20032;-89
2022/05/17 07:28:09;;;;;;;19.63;5.25;;;;;;;17.05;79.63;102005.44;5048410;28;20033;-91
2022/05/17 07:30:35;;;;;;;20.67;5.07;;;;;;;16.89;82.85;102012.72;5048416;28;20516;-90
2022/05/17 07:33:00;;;;;;;15.60;5.37;;;;;;;16.64;84.47;102004.31;5050033;28;20120;-86
2022/05/17 07:35:25;;;;;;;17.83;6.23;;;;;;;16.45;89.02;102014.84;5061950;28;20037;-87
2022/05/17 07:37:51;;;;;;;12.50;5.67;;;;;;;16.33;89.82;102022.41;5068054;28;20037;-87
2022/05/17 07:40:17;;;;;;;17.35;7.05;;;;;;;16.22;90.81;102016.16;5066787;28;20029;-88
2022/05/17 07:42:43;;;;;;;15.82;6.88;;;;;;;16.12;91.97;102006.13;5062462;28;20501;-88
2022/05/17 07:45:10;;;;;;;22.43;7.13;;;;;;;16.10;93.40;101999.38;5052416;28;20037;-88
2022/05/17 07:47:36;;;;;;;13.90;7.20;;;;;;;16.01;93.81;101999.09;5050212;28;20111;-88
2022/05/17 07:50:03;;;;;;;14.75;6.88;;;;;;;15.89;93.78;101989.31;5050366;28;20488;-88
2022/05/17 07:52:28;;;;;;;16.63;8.57;;;;;;;15.81;94.52;101988.97;5050713;28;20365;-88
2022/05/17 07:54:54;;;;;;;23.47;8.93;;;;;;;15.66;96.06;101993.25;5051944;28;20367;-88
2022/05/17 07:57:19;;;;;;;16.37;8.20;;;;;;;15.60;96.67;102003.22;5057085;28;20045;-88
2022/05/17 07:59:45;;;;;;;22.83;9.43;;;;;;;15.63;98.25;102004.56;5055903;28;20075;-88
2022/05/17 08:02:11;;;;;;;13.93;9.53;;;;;;;15.82;100.00;102017.63;5058705;28;20033;-89
2022/05/17 08:04:36;;;;;;;20.55;9.25;;;;;;;16.03;100.00;102010.44;5056850;28;20056;-88
2022/05/17 08:07:02;;;;;;;23.83;10.17;;;;;;;16.25;98.35;102012.13;5054921;28;20031;-88
2022/05/17 08:09:27;;;;;;;21.58;9.82;;;;;;;16.43;98.84;102011.59;5053753;28;20148;-89
2022/05/17 08:11:52;;;;;;;17.20;9.37;;;;;;;16.56;97.63;102010.25;5051994;28;20025;-86
2022/05/17 08:14:19;;;;;;;22.27;9.07;;;;;;;16.61;96.08;102018.38;5054292;28;20033;-87
2022/05/17 08:16:46;;;;;;;20.58;9.35;;;;;;;16.68;96.82;102018.13;5053810;28;20137;-89
2022/05/17 08:19:13;;;;;;;17.90;8.93;;;;;;;16.72;96.90;102019.22;5053475;28;20028;-87
2022/05/17 08:21:40;;;;;;;14.83;7.60;;;;;;;16.65;94.74;102015.94;5052480;28;20071;-88
2022/05/17 08:24:06;;;;;;;16.60;8.27;;;;;;;16.49;93.04;102015.94;5053622;28;20279;-87
2022/05/17 08:29:15;;;;;;;20.13;8.38;;;;;;;16.49;97.08;102023.25;5052764;28;20079;-87
2022/05/17 08:31:42;;;;;;;20.13;8.07;;;;;;;16.65;95.54;102024.91;5052707;28;20491;-88
2022/05/17 08:34:11;;;;;;;18.80;7.75;;;;;;;16.69;93.58;102027.88;5053557;28;20032;-89
2022/05/17 08:36:36;;;;;;;19.08;8.30;;;;;;;16.69;94.91;102018.94;5051933;28;20052;-86
2022/05/17 08:39:02;;;;;;;17.43;7.80;;;;;;;16.80;95.17;102025.97;5051195;28;20021;-88
2022/05/17 08:41:41;;;;;;;18.98;7.93;;;;;;;16.79;92.25;102025.19;5031882;28;21230;-87
2022/05/17 08:44:07;;;;;;;15.13;8.10;;;;;;;16.84;93.54;102018.94;5051391;28;20037;-91
2022/05/17 08:46:58;;;;;;;16.17;7.40;;;;;;;16.92;91.16;102021.09;5046577;28;20033;-91
2022/05/17 08:49:26;;;;;;;12.95;7.22;;;;;;;16.95;91.96;102023.28;5045216;28;20026;-90
2022/05/17 08:52:02;;;;;;;12.85;7.05;;;;;;;17.12;90.48;102021.38;5050591;28;20029;-91
2022/05/17 08:54:59;;;;;;;16.00;7.85;;;;;;;17.40;91.18;102028.09;5052849;28;20453;-91
2022/05/17 08:57:53;;;;;;;21.10;7.70;;;;;;;17.55;88.64;102025.34;5046059;28;20037;-90
2022/05/17 09:00:23;;;;;;;12.53;6.73;;;;;;;17.60;87.45;102023.72;5050858;28;20850;-90
2022/05/17 09:02:54;;;;;;;15.57;6.57;;;;;;;17.73;85.96;102022.28;5051780;28;20319;-90
2022/05/17 09:05:46;;;;;;;14.23;7.20;;;;;;;17.95;85.40;102024.66;5055270;28;20504;-90
2022/05/17 09:08:24;;;;;;;19.50;8.95;;;;;;;17.90;84.96;102009.19;5051471;28;20721;-90
2022/05/17 09:10:56;;;;;;;19.85;8.90;;;;;;;17.90;84.43;102006.50;5057450;28;20025;-90
2022/05/17 09:13:52;;;;;;;17.55;8.43;;;;;;;18.04;84.79;102006.72;5051631;28;20047;-90
2022/05/17 09:16:21;;;;;;;13.07;7.80;;;;;;;18.29;84.10;102005.75;5052481;28;20040;-89
2022/05/17 09:18:48;;;;;;;16.13;7.80;;;;;;;18.68;84.73;102008.72;5051517;28;20025;-89
2022/05/17 09:21:31;;;;;;;19.13;7.60;;;;;;;19.01;81.64;102001.69;5051262;28;20419;-89
2022/05/17 09:23:59;;;;;;;11.68;6.50;;;;;;;19.54;79.26;102010.09;5050104;28;20418;-89
2022/05/17 09:26:26;;;;;;;13.63;6.67;;;;;;;19.86;78.28;102016.78;5047842;28;20029;-90
2022/05/17 09:29:12;;;;;;;14.13;6.30;;;;;;;19.87;75.76;102008.34;5052499;28;20837;-87
2022/05/17 09:37:36;;;;;;;15.05;5.82;;;;;;;20.42;74.22;101988.78;4888270;29;20414;-91
2022/05/17 09:46:10;;;;;;;11.13;5.60;;;;;;;20.65;71.25;102002.53;6036533;22;20099;-91
2022/05/17 09:56:35;;;;;;;8.57;4.20;;;;;;;21.70;65.08;102000.38;6116351;22;20258;-90
2022/05/17 09:59:00;;;;;;;8.48;3.85;;;;;;;21.94;64.73;101993.84;5031172;28;20037;-89
2022/05/17 10:01:35;;;;;;;9.73;3.93;;;;;;;21.95;62.04;101995.47;5032026;28;20384;-88
2022/05/17 10:04:13;;;;;;;8.50;4.47;;;;;;;22.21;64.30;101982.03;5029956;28;20052;-89
2022/05/17 10:06:47;;;;;;;8.20;5.32;;;;;;;22.57;62.83;101971.38;5030100;28;20037;-87
2022/05/17 10:09:28;;;;;;;10.80;4.90;;;;;;;22.94;61.76;101974.78;5028690;28;20451;-88
2022/05/17 10:12:00;;;;;;;12.17;5.90;;;;;;;23.07;58.17;101967.63;5035405;28;20292;-89
2022/05/17 10:14:43;;;;;;;14.18;5.70;;;;;;;22.98;59.26;101965.66;5040320;28;20029;-91
2022/05/17 10:17:20;;;;;;;14.13;6.40;;;;;;;23.10;59.68;101959.59;5039722;28;20044;-91
2022/05/17 10:19:56;;;;;;;12.35;6.35;;;;;;;23.44;60.19;101968.25;5045369;28;20048;-88
2022/05/17 10:22:40;;;;;;;14.20;7.07;;;;;;;23.78;57.71;101952.19;5050846;28;20073;-92
2022/05/17 10:25:23;;;;;;;13.35;7.20;;;;;;;23.86;56.65;101934.97;5051587;28;20041;-92
2022/05/17 10:27:54;;;;;;;14.25;6.30;;;;;;;23.94;55.94;101956.03;5053782;28;20463;-90
2022/05/17 10:30:26;;;;;;;15.27;7.40;;;;;;;23.94;56.48;101958.78;5049585;28;20480;-92
2022/05/17 10:32:57;;;;;;;13.68;7.32;;;;;;;24.08;56.80;101955.13;5041419;28;20029;-91
2022/05/17 10:35:29;;;;;;;16.57;8.00;;;;;;;24.30;55.46;101957.66;5033257;28;20090;-91
2022/05/17 10:38:18;;;;;;;15.53;7.67;;;;;;;24.02;55.44;101958.00;5032815;28;20276;-90
2022/05/17 10:40:47;;;;;;;12.80;7.60;;;;;;;23.79;54.21;101953.78;5032233;28;20072;-89
2022/05/17 10:43:38;;;;;;;15.05;8.20;;;;;;;24.07;56.20;101957.03;5031489;28;20021;-88
2022/05/17 10:46:04;;;;;;;16.30;7.95;;;;;;;24.53;53.52;101951.97;5028150;28;20037;-88
2022/05/17 10:48:48;;;;;;;13.13;6.93;;;;;;;24.62;52.72;101946.47;5034647;28;20030;-90
2022/05/17 10:51:40;;;;;;;16.52;8.07;;;;;;;24.93;53.19;101957.19;5035359;28;20041;-89
2022/05/17 10:54:16;;;;;;;13.15;7.22;;;;;;;24.91;51.83;101953.97;5030244;28;20037;-90
2022/05/17 10:57:18;;;;;;;16.25;7.20;;;;;;;25.04;52.51;101954.06;5030060;28;20076;-90
2022/05/17 11:00:09;;;;;;;10.55;6.80;;;;;;;25.28;51.02;101952.66;5021304;28;20063;-91
2022/05/17 11:03:00;;;;;;;11.63;6.53;;;;;;;25.55;49.76;101954.94;5026707;28;20075;-92
2022/05/17 11:05:59;;;;;;;10.98;6.15;;;;;;;25.77;48.95;101947.50;5027213;28;20022;-92
2022/05/17 11:08:52;;;;;;;11.52;6.07;;;;;;;25.92;47.17;101953.53;5024792;28;20042;-90
2022/05/17 11:11:40;;;;;;;9.20;5.30;;;;;;;25.76;47.64;101937.66;5029192;28;20109;-90
2022/05/17 11:14:32;;;;;;;11.30;5.83;;;;;;;25.76;48.20;101925.88;5028919;28;20075;-88
2022/05/17 11:17:30;;;;;;;8.80;4.77;;;;;;;25.99;49.26;101932.63;5001980;28;20319;-87
2022/05/17 11:20:05;;;;;;;13.25;4.50;;;;;;;26.08;45.91;101926.25;5028942;28;20112;-88
2022/05/17 11:23:03;;;;;;;8.48;4.60;;;;;;;25.97;46.58;101929.41;5012974;28;20477;-88
2022/05/17 11:25:44;;;;;;;11.85;4.38;;;;;;;25.61;47.47;101919.06;5024168;28;20227;-88
2022/05/17 11:28:31;;;;;;;13.85;3.80;;;;;;;25.92;47.86;101912.34;5026606;28;20086;-88
2022/05/17 11:31:04;;;;;;;9.63;3.97;;;;;;;26.36;48.35;101909.97;5027686;28;20052;-89
2022/05/17 11:33:39;;;;;;;9.07;3.63;;;;;;;26.33;46.58;101904.38;5024874;28;20030;-88
2022/05/17 11:36:05;;;;;;;11.10;4.20;;;;;;;26.28;47.10;101903.44;5030015;28;20028;-89
2022/05/17 11:38:36;;;;;;;12.18;3.67;;;;;;;26.19;45.69;101904.69;5029424;28;20044;-90
2022/05/17 11:41:17;;;;;;;19.77;3.50;;;;;;;26.00;47.31;101895.81;5029491;28;20052;-88
2022/05/17 11:44:11;;;;;;;7.67;3.10;;;;;;;25.95;45.71;101900.69;5026170;28;20322;-89
2022/05/17 11:46:41;;;;;;;9.48;3.17;;;;;;;25.82;45.77;101892.41;5028760;28;20037;-89
2022/05/17 11:49:15;;;;;;;6.88;2.60;;;;;;;25.72;46.15;101887.34;5010382;28;20026;-90
2022/05/17 11:51:59;;;;;;;9.32;2.53;;;;;;;25.80;46.43;101885.66;5009927;28;20034;-90
2022/05/17 11:54:47;;;;;;;5.97;2.88;;;;;;;25.75;45.61;101875.66;5025527;28;20030;-90